createdAt,value
2023-02-03T00:01:44.010Z,6.72
2023-02-03T00:04:10.514Z,8.98
2023-02-03T00:06:37.155Z,5.18
2023-02-03T00:09:03.772Z,10.63
2023-02-03T00:11:30.807Z,8.95
2023-02-03T00:13:57.300Z,8.15
2023-02-03T00:16:23.882Z,9.80
2023-02-03T00:18:50.431Z,7.90
2023-02-03T00:21:16.949Z,6.50
2023-02-03T00:23:43.590Z,9.07
2023-02-03T00:26:12.913Z,7.72
2023-02-03T00:28:41.804Z,6.15
2023-02-03T00:31:22.258Z,7.07
2023-02-03T00:33:54.266Z,6.97
2023-02-03T00:36:20.823Z,8.32
2023-02-03T00:38:47.314Z,7.35
2023-02-03T00:41:13.779Z,7.07
2023-02-03T00:43:40.302Z,8.02
2023-02-03T00:46:07.853Z,5.53
2023-02-03T00:48:35.160Z,8.43
2023-02-03T00:51:01.664Z,11.07
2023-02-03T00:53:28.206Z,7.47
2023-02-03T00:55:54.907Z,11.38
2023-02-03T00:58:22.250Z,8.27
2023-02-03T01:00:48.852Z,4.93
2023-02-03T01:03:16.521Z,5.05
2023-02-03T01:05:43.001Z,6.25
2023-02-03T01:08:09.524Z,7.25
2023-02-03T01:10:38.221Z,6.45
2023-02-03T01:13:04.724Z,10.52
2023-02-03T01:15:31.297Z,6.60
2023-02-03T01:17:57.763Z,5.55
2023-02-03T01:20:24.520Z,8.35
2023-02-03T01:22:51.166Z,6.93
2023-02-03T01:25:17.769Z,7.88
2023-02-03T01:27:44.255Z,7.03
2023-02-03T01:30:11.425Z,10.80
2023-02-03T01:32:37.978Z,7.22
2023-02-03T01:35:04.804Z,7.93
2023-02-03T01:37:31.325Z,8.95
2023-02-03T01:39:57.843Z,4.78
2023-02-03T01:42:24.376Z,6.30
2023-02-03T01:44:52.021Z,7.53
2023-02-03T01:47:23.175Z,6.78
2023-02-03T01:50:30.645Z,7.75
2023-02-03T01:53:02.654Z,6.97
2023-02-03T01:55:37.362Z,8.18
2023-02-03T01:58:15.806Z,7.50
2023-02-03T02:00:43.712Z,7.18
2023-02-03T02:03:10.836Z,7.25
2023-02-03T02:05:52.503Z,7.05
2023-02-03T02:08:20.378Z,6.90
2023-02-03T02:10:47.087Z,7.18
2023-02-03T02:13:15.563Z,8.82
2023-02-03T02:18:58.233Z,4.82
2023-02-03T02:21:48.792Z,7.97
2023-02-03T02:24:24.453Z,6.43
2023-02-03T02:26:57.438Z,9.20
2023-02-03T02:29:26.990Z,8.05
2023-02-03T02:32:18.394Z,6.70
2023-02-03T02:34:54.080Z,8.38
2023-02-03T02:37:33.413Z,8.18
2023-02-03T02:40:07.426Z,6.55
2023-02-03T02:42:42.686Z,7.25
2023-02-03T02:45:16.109Z,8.73
2023-02-03T02:47:45.022Z,9.98
2023-02-03T02:50:19.225Z,7.95
2023-02-03T02:52:48.578Z,12.90
2023-02-03T02:55:20.679Z,9.20
2023-02-03T02:57:48.398Z,7.30
2023-02-03T03:00:18.027Z,9.48
2023-02-03T03:02:44.650Z,6.05
2023-02-03T03:05:12.370Z,6.47
2023-02-03T03:07:50.727Z,7.00
2023-02-03T03:10:23.022Z,7.93
2023-02-03T03:12:54.575Z,8.93
2023-02-03T03:15:25.055Z,6.20
2023-02-03T03:17:59.182Z,9.20
2023-02-03T03:20:27.177Z,8.15
2023-02-03T03:23:05.815Z,10.00
2023-02-03T03:25:41.804Z,8.90
2023-02-03T03:28:15.079Z,5.47
2023-02-03T03:30:42.166Z,7.00
2023-02-03T03:33:09.579Z,6.97
2023-02-03T03:35:43.810Z,11.77
2023-02-03T03:38:34.172Z,6.40
2023-02-03T03:41:23.347Z,7.43
2023-02-03T03:43:52.937Z,9.05
2023-02-03T03:46:29.931Z,6.20
2023-02-03T03:49:03.690Z,7.45
2023-02-03T03:51:46.220Z,6.75
2023-02-03T03:54:16.453Z,7.22
2023-02-03T03:56:52.972Z,7.05
2023-02-03T03:59:22.298Z,5.65
2023-02-03T04:01:50.967Z,7.72
2023-02-03T04:04:19.549Z,9.90
2023-02-03T04:06:46.088Z,10.07
2023-02-03T04:09:12.581Z,8.52
2023-02-03T04:11:39.073Z,8.18
2023-02-03T04:14:05.588Z,9.13
2023-02-03T04:16:32.159Z,7.07
2023-02-03T04:18:58.683Z,5.18
2023-02-03T04:21:25.142Z,8.80
2023-02-03T04:23:51.613Z,10.88
2023-02-03T04:26:18.145Z,5.75
2023-02-03T04:28:44.831Z,6.45
2023-02-03T04:31:11.459Z,5.55
2023-02-03T04:33:37.992Z,7.40
2023-02-03T04:36:04.674Z,4.55
2023-02-03T04:38:31.217Z,8.25
2023-02-03T04:40:57.701Z,7.13
2023-02-03T04:43:24.237Z,11.30
2023-02-03T04:45:50.854Z,7.10
2023-02-03T04:48:17.363Z,9.57
2023-02-03T04:50:43.897Z,7.85
2023-02-03T04:53:10.450Z,5.78
2023-02-03T04:55:36.925Z,6.22
2023-02-03T04:58:03.560Z,7.85
2023-02-03T05:00:30.361Z,5.90
2023-02-03T05:02:57.104Z,9.23
2023-02-03T05:05:23.746Z,7.95
2023-02-03T05:07:50.244Z,6.68
2023-02-03T05:10:16.825Z,8.05
2023-02-03T05:12:43.291Z,8.35
2023-02-03T05:15:10.135Z,6.93
2023-02-03T05:17:36.656Z,5.88
2023-02-03T05:20:03.233Z,7.70
2023-02-03T05:22:29.754Z,7.38
2023-02-03T05:24:56.211Z,11.82
2023-02-03T05:27:22.727Z,5.38
2023-02-03T05:29:49.175Z,5.07
2023-02-03T05:32:15.667Z,5.90
2023-02-03T05:34:42.474Z,4.70
2023-02-03T05:37:08.978Z,7.55
2023-02-03T05:39:35.429Z,5.85
2023-02-03T05:42:01.924Z,4.55
2023-02-03T05:44:29.040Z,7.72
2023-02-03T05:46:58.911Z,6.55
2023-02-03T05:49:26.052Z,7.05
2023-02-03T05:51:54.304Z,5.68
2023-02-03T05:54:21.467Z,9.70
2023-02-03T05:56:47.990Z,8.27
2023-02-03T05:59:14.764Z,7.47
2023-02-03T06:01:41.333Z,4.95
2023-02-03T06:04:08.026Z,6.57
2023-02-03T06:06:34.833Z,4.97
2023-02-03T06:09:02.812Z,6.53
2023-02-03T06:11:30.251Z,6.07
2023-02-03T06:13:57.508Z,4.75
2023-02-03T06:16:27.933Z,5.00
2023-02-03T06:18:56.036Z,4.75
2023-02-03T06:21:22.529Z,6.57
2023-02-03T06:23:48.985Z,3.78
2023-02-03T06:26:15.570Z,5.43
2023-02-03T06:28:42.042Z,4.53
2023-02-03T06:31:08.774Z,4.03
2023-02-03T06:33:35.558Z,6.75
2023-02-03T06:36:02.070Z,5.75
2023-02-03T06:38:28.558Z,6.85
2023-02-03T06:40:55.027Z,4.47
2023-02-03T06:43:21.529Z,6.68
2023-02-03T06:45:48.133Z,6.57
2023-02-03T06:48:15.308Z,6.00
2023-02-03T06:50:41.867Z,9.20
2023-02-03T06:53:08.391Z,6.22
2023-02-03T06:55:34.849Z,6.13
2023-02-03T06:58:01.329Z,5.43
2023-02-03T07:00:28.253Z,4.03
2023-02-03T07:02:56.587Z,6.20
2023-02-03T07:05:24.630Z,6.47
2023-02-03T07:07:51.957Z,9.48
2023-02-03T07:10:18.629Z,4.38
2023-02-03T07:12:45.336Z,7.43
2023-02-03T07:15:12.967Z,6.40
2023-02-03T07:17:39.487Z,6.68
2023-02-03T07:20:06.291Z,6.18
2023-02-03T07:22:32.814Z,6.90
2023-02-03T07:24:59.335Z,5.95
2023-02-03T07:27:26.364Z,7.93
2023-02-03T07:29:52.872Z,7.90
2023-02-03T07:32:19.360Z,6.38
2023-02-03T07:34:45.945Z,5.07
2023-02-03T07:37:12.453Z,5.97
2023-02-03T07:39:38.873Z,6.05
2023-02-03T07:42:05.428Z,7.68
2023-02-03T07:44:36.787Z,5.72
2023-02-03T07:47:03.274Z,6.70
2023-02-03T07:49:29.727Z,7.07
2023-02-03T07:51:56.273Z,4.78
2023-02-03T07:54:22.697Z,5.03
2023-02-03T07:56:49.220Z,5.93
2023-02-03T07:59:17.196Z,6.00
2023-02-03T08:01:43.859Z,6.78
2023-02-03T08:04:10.421Z,4.47
2023-02-03T08:06:36.935Z,9.30
2023-02-03T08:09:03.466Z,4.40
2023-02-03T08:11:29.991Z,5.78
2023-02-03T08:13:56.584Z,8.68
2023-02-03T08:16:23.119Z,5.45
2023-02-03T08:18:49.707Z,6.88
2023-02-03T08:21:16.197Z,6.13
2023-02-03T08:23:42.860Z,5.70
2023-02-03T08:26:09.541Z,6.53
2023-02-03T08:28:36.161Z,6.97
2023-02-03T08:31:10.084Z,4.90
2023-02-03T08:33:36.701Z,6.07
2023-02-03T08:36:05.147Z,8.77
2023-02-03T08:38:32.208Z,6.50
2023-02-03T08:40:58.830Z,5.93
2023-02-03T08:43:25.331Z,7.15
2023-02-03T08:45:52.135Z,8.38
2023-02-03T08:48:18.938Z,5.88
2023-02-03T08:50:45.382Z,7.07
2023-02-03T08:53:11.938Z,5.57
2023-02-03T08:55:39.848Z,5.50
2023-02-03T08:58:06.413Z,5.90
2023-02-03T09:00:32.919Z,7.40
2023-02-03T09:02:59.415Z,3.83
2023-02-03T09:05:25.905Z,4.88
2023-02-03T09:07:52.441Z,5.80
2023-02-03T09:10:18.946Z,5.43
2023-02-03T09:12:45.451Z,6.90
2023-02-03T09:15:11.948Z,5.18
2023-02-03T09:17:38.505Z,6.63
2023-02-03T09:20:05.827Z,6.90
2023-02-03T09:22:32.456Z,5.90
2023-02-03T09:24:59.073Z,7.05
2023-02-03T09:27:25.689Z,3.15
2023-02-03T09:29:52.453Z,8.63
2023-02-03T09:32:19.036Z,5.00
2023-02-03T09:34:45.539Z,5.97
2023-02-03T09:37:12.140Z,7.05
2023-02-03T09:39:38.668Z,3.53
2023-02-03T09:42:34.431Z,3.78
2023-02-03T09:45:01.032Z,5.15
2023-02-03T09:47:32.731Z,5.95
2023-02-03T09:50:02.573Z,3.72
2023-02-03T09:52:35.727Z,5.35
2023-02-03T09:55:11.233Z,5.50
2023-02-03T09:57:44.588Z,6.15
2023-02-03T10:00:26.486Z,6.07
2023-02-03T10:02:56.000Z,7.28
2023-02-03T10:05:44.451Z,3.63
2023-02-03T10:08:45.090Z,5.47
2023-02-03T10:11:23.741Z,8.50
2023-02-03T10:14:06.889Z,3.08
2023-02-03T10:16:48.813Z,4.60
2023-02-03T10:19:26.628Z,4.53
2023-02-03T10:21:58.830Z,4.75
2023-02-03T10:24:40.849Z,5.55
2023-02-03T10:27:20.610Z,7.00
2023-02-03T10:29:54.695Z,10.35
2023-02-03T10:32:21.267Z,11.57
2023-02-03T10:34:48.024Z,8.63
2023-02-03T10:37:30.471Z,5.97
2023-02-03T10:39:59.253Z,5.72
2023-02-03T10:42:25.989Z,6.53
2023-02-03T10:44:53.404Z,8.77
2023-02-03T10:47:26.152Z,5.03
2023-02-03T10:49:55.302Z,4.80
2023-02-03T10:52:47.961Z,3.83
2023-02-03T10:55:26.670Z,3.65
2023-02-03T10:57:54.472Z,9.45
2023-02-03T11:00:27.962Z,3.63
2023-02-03T11:03:26.530Z,7.20
2023-02-03T11:06:07.529Z,9.05
2023-02-03T11:08:35.839Z,3.25
2023-02-03T11:11:05.426Z,3.78
2023-02-03T11:13:32.580Z,5.75
2023-02-03T11:16:06.820Z,4.70
2023-02-03T11:19:04.373Z,6.25
2023-02-03T11:21:46.476Z,6.57
2023-02-03T11:24:20.506Z,5.60
2023-02-03T11:26:57.106Z,11.00
2023-02-03T11:29:26.597Z,5.47
2023-02-03T11:31:55.744Z,5.10
2023-02-03T11:34:25.034Z,5.38
2023-02-03T11:36:52.119Z,6.20
2023-02-03T11:39:27.585Z,5.13
2023-02-03T11:41:55.184Z,6.72
2023-02-03T11:44:27.830Z,6.57
2023-02-03T11:47:09.120Z,5.88
2023-02-03T11:50:02.797Z,5.93
2023-02-03T11:52:40.313Z,5.13
2023-02-03T11:55:31.243Z,4.60
2023-02-03T11:58:25.424Z,5.80
2023-02-03T12:01:28.355Z,6.45
2023-02-03T12:03:54.794Z,3.53
2023-02-03T12:06:29.203Z,4.95
2023-02-03T12:09:28.487Z,4.45
2023-02-03T12:12:29.049Z,4.53
2023-02-03T12:15:14.057Z,5.00
2023-02-03T12:17:52.775Z,5.85
2023-02-03T12:20:31.501Z,3.75
2023-02-03T12:23:17.866Z,5.57
2023-02-03T12:26:10.690Z,3.88
2023-02-03T12:29:15.371Z,2.45
2023-02-03T12:31:49.953Z,4.10
2023-02-03T12:34:31.981Z,3.58
2023-02-03T12:37:06.298Z,4.72
2023-02-03T12:39:40.103Z,2.42
2023-02-03T12:42:15.957Z,3.97
2023-02-03T12:44:46.952Z,3.22
2023-02-03T12:47:22.191Z,3.17
2023-02-03T12:50:06.368Z,3.75
2023-02-03T12:52:47.557Z,3.55
2023-02-03T12:55:32.123Z,2.83
2023-02-03T12:58:04.797Z,4.03
2023-02-03T13:00:49.765Z,5.30
2023-02-03T13:03:41.524Z,6.13
2023-02-03T13:06:16.071Z,4.18
2023-02-03T13:09:16.658Z,5.32
2023-02-03T13:12:06.478Z,6.65
2023-02-03T13:14:40.256Z,5.10
2023-02-03T13:17:12.627Z,5.10
2023-02-03T13:19:58.226Z,4.88
2023-02-03T13:22:24.798Z,3.28
2023-02-03T13:25:09.169Z,2.53
2023-02-03T13:27:57.651Z,7.90
2023-02-03T13:30:52.324Z,4.25
2023-02-03T13:33:45.748Z,4.97
2023-02-03T13:36:23.982Z,3.15
2023-02-03T13:39:18.556Z,3.38
2023-02-03T13:41:51.963Z,3.25
2023-02-03T13:44:25.157Z,5.80
2023-02-03T13:46:52.676Z,4.85
2023-02-03T13:49:37.483Z,4.03
2023-02-03T13:52:04.215Z,4.80
2023-02-03T13:54:35.812Z,5.25
2023-02-03T13:57:05.014Z,3.88
2023-02-03T13:59:37.613Z,3.63
2023-02-03T14:02:40.307Z,4.65
2023-02-03T14:05:29.320Z,5.57
2023-02-03T14:07:55.974Z,3.55
2023-02-03T14:10:23.126Z,4.50
2023-02-03T14:12:49.617Z,2.28
2023-02-03T14:15:29.127Z,3.30
2023-02-03T14:17:58.802Z,4.07
2023-02-03T14:20:25.223Z,4.57
2023-02-03T14:22:57.807Z,5.40
2023-02-03T14:25:25.964Z,3.10
2023-02-03T14:28:00.794Z,4.03
2023-02-03T14:30:27.438Z,4.20
2023-02-03T14:32:56.628Z,6.13
2023-02-03T14:35:38.027Z,5.10
2023-02-03T14:38:08.872Z,5.28
2023-02-03T14:40:42.941Z,6.05
2023-02-03T14:43:30.732Z,4.32
2023-02-03T14:46:15.317Z,5.00
2023-02-03T14:49:00.106Z,3.35
2023-02-03T14:51:29.716Z,5.55
2023-02-03T14:54:33.991Z,6.03
2023-02-03T14:57:30.866Z,5.93
2023-02-03T15:00:18.922Z,4.38
2023-02-03T15:03:07.106Z,4.50
2023-02-03T15:05:38.016Z,4.32
2023-02-03T15:08:04.571Z,4.93
2023-02-03T15:10:43.357Z,4.82
2023-02-03T15:13:31.895Z,4.15
2023-02-03T15:16:03.852Z,4.88
2023-02-03T15:18:34.302Z,4.35
2023-02-03T15:21:00.901Z,4.80
2023-02-03T15:23:38.570Z,10.13
2023-02-03T15:26:13.981Z,4.78
2023-02-03T15:28:40.619Z,5.70
2023-02-03T15:31:20.533Z,5.90
2023-02-03T15:33:48.659Z,5.03
2023-02-03T15:36:32.479Z,5.43
2023-02-03T15:39:16.016Z,2.92
2023-02-03T15:41:43.344Z,3.88
2023-02-03T15:44:23.529Z,5.70
2023-02-03T15:46:53.060Z,4.45
2023-02-03T15:49:30.027Z,3.45
2023-02-03T15:52:03.504Z,7.97
2023-02-03T15:54:41.309Z,10.43
2023-02-03T15:57:19.822Z,4.95
2023-02-03T15:59:55.105Z,6.30
2023-02-03T16:02:31.906Z,5.63
2023-02-03T16:05:03.432Z,6.28
2023-02-03T16:09:58.845Z,5.85
2023-02-03T16:12:29.202Z,7.57
2023-02-03T16:14:57.545Z,5.53
2023-02-03T16:17:23.958Z,5.25
2023-02-03T16:19:51.171Z,7.63
2023-02-03T16:22:35.606Z,6.07
2023-02-03T16:25:26.825Z,4.65
2023-02-03T16:28:06.593Z,6.22
2023-02-03T16:30:33.201Z,5.07
2023-02-03T16:33:08.630Z,6.68
2023-02-03T16:35:35.190Z,5.70
2023-02-03T16:38:12.959Z,3.63
2023-02-03T16:40:39.497Z,6.70
2023-02-03T16:43:12.021Z,8.75
2023-02-03T16:45:38.660Z,5.47
2023-02-03T16:48:05.360Z,4.35
2023-02-03T16:50:38.715Z,5.32
2023-02-03T16:53:12.113Z,7.10
2023-02-03T16:55:38.846Z,8.48
2023-02-03T16:58:05.452Z,6.97
2023-02-03T17:00:31.993Z,6.75
2023-02-03T17:02:58.829Z,6.43
2023-02-03T17:05:25.566Z,4.75
2023-02-03T17:07:52.057Z,8.55
2023-02-03T17:10:18.540Z,5.28
2023-02-03T17:12:45.026Z,5.47
2023-02-03T17:15:11.533Z,4.95
2023-02-03T17:17:38.027Z,5.22
2023-02-03T17:20:04.985Z,5.18
2023-02-03T17:22:31.474Z,5.10
2023-02-03T17:24:58.012Z,6.03
2023-02-03T17:27:24.833Z,6.65
2023-02-03T17:29:51.328Z,5.00
2023-02-03T17:32:17.891Z,6.55
2023-02-03T17:34:44.485Z,5.97
2023-02-03T17:37:10.982Z,6.97
2023-02-03T17:55:49.176Z,5.75
2023-02-03T17:58:15.641Z,9.02
2023-02-03T18:00:42.156Z,9.63
2023-02-03T18:03:08.766Z,6.95
2023-02-03T18:05:35.228Z,5.57
2023-02-03T18:08:08.939Z,7.05
2023-02-03T18:10:43.439Z,8.40
2023-02-03T18:13:10.180Z,4.40
2023-02-03T18:15:37.633Z,8.95
2023-02-03T18:18:04.174Z,6.40
2023-02-03T18:20:30.906Z,5.95
2023-02-03T18:22:57.450Z,5.57
2023-02-03T18:25:23.897Z,8.57
2023-02-03T18:27:50.753Z,6.38
2023-02-03T18:30:17.388Z,6.93
2023-02-03T18:32:44.037Z,5.95
2023-02-03T18:35:10.566Z,10.30
2023-02-03T18:37:37.011Z,7.13
2023-02-03T18:40:03.732Z,7.65
2023-02-03T18:42:30.244Z,10.07
2023-02-03T18:44:56.703Z,8.85
2023-02-03T18:47:23.130Z,8.85
2023-02-03T18:49:49.644Z,8.23
2023-02-03T18:52:16.101Z,10.30
2023-02-03T18:54:42.601Z,8.65
2023-02-03T18:57:09.221Z,6.95
2023-02-03T18:59:35.666Z,7.00
2023-02-03T19:02:02.113Z,12.18
2023-02-03T19:04:28.855Z,10.77
2023-02-03T19:06:55.311Z,8.88
2023-02-03T19:09:21.852Z,6.80
2023-02-03T19:11:48.381Z,8.52
2023-02-03T19:14:14.938Z,15.63
2023-02-03T19:16:41.687Z,13.07
2023-02-03T19:19:08.428Z,10.63
2023-02-03T19:21:35.233Z,12.00
2023-02-03T19:24:01.745Z,7.45
2023-02-03T19:26:28.245Z,9.20
2023-02-03T19:28:55.029Z,8.98
2023-02-03T19:31:21.579Z,9.48
2023-02-03T19:33:48.194Z,8.75
2023-02-03T19:36:14.671Z,9.70
2023-02-03T19:38:41.277Z,14.85
2023-02-03T19:41:07.821Z,11.18
2023-02-03T19:43:34.314Z,9.85
2023-02-03T19:46:00.952Z,12.05
2023-02-03T19:48:27.566Z,10.80
2023-02-03T19:50:54.096Z,15.23
2023-02-03T19:53:20.663Z,13.38
2023-02-03T19:55:47.460Z,10.98
2023-02-03T19:58:14.267Z,9.43
2023-02-03T20:00:41.699Z,8.13
2023-02-03T20:03:08.354Z,8.15
2023-02-03T20:05:35.665Z,9.18
2023-02-03T20:08:02.352Z,8.65
2023-02-03T20:10:29.249Z,9.07
2023-02-03T20:12:55.896Z,8.63
2023-02-03T20:15:22.352Z,9.70
2023-02-03T20:17:49.099Z,17.17
2023-02-03T20:20:19.685Z,14.75
2023-02-03T20:22:47.257Z,15.60
2023-02-03T20:25:13.849Z,13.15
2023-02-03T20:27:40.517Z,17.42
2023-02-03T20:30:07.399Z,11.45
2023-02-03T20:32:34.234Z,14.00
2023-02-03T20:35:00.739Z,10.02
2023-02-03T20:37:27.282Z,11.18
2023-02-03T20:39:53.751Z,13.27
2023-02-03T20:42:20.360Z,13.07
2023-02-03T20:44:47.070Z,12.13
2023-02-03T20:47:16.052Z,14.00
2023-02-03T20:49:42.655Z,16.55
2023-02-03T20:52:17.904Z,14.82
2023-02-03T20:54:44.585Z,13.70
2023-02-03T20:57:16.742Z,14.70
2023-02-03T20:59:44.070Z,14.23
2023-02-03T21:02:24.385Z,13.32
2023-02-03T21:04:50.999Z,13.63
2023-02-03T21:07:17.712Z,13.88
2023-02-03T21:09:44.213Z,16.23
2023-02-03T21:12:12.727Z,13.80
2023-02-03T21:14:42.863Z,15.20
2023-02-03T21:17:19.881Z,15.68
2023-02-03T21:19:47.007Z,14.50
2023-02-03T21:22:17.346Z,17.55
2023-02-03T21:24:50.395Z,12.85
2023-02-03T21:27:30.451Z,16.02
2023-02-03T21:29:59.027Z,12.90
2023-02-03T21:32:38.117Z,12.02
2023-02-03T21:35:35.635Z,12.30
2023-02-03T21:38:24.862Z,14.75
2023-02-03T21:40:51.364Z,14.90
2023-02-03T21:43:18.184Z,15.68
2023-02-03T21:45:45.036Z,11.80
2023-02-03T21:48:28.051Z,12.57
2023-02-03T21:50:56.754Z,12.85
2023-02-03T21:53:27.043Z,10.90
2023-02-03T21:55:54.253Z,11.73
2023-02-03T21:58:28.043Z,11.88
2023-02-03T22:00:56.814Z,9.45
2023-02-03T22:03:38.522Z,10.05
2023-02-03T22:08:49.395Z,9.13
2023-02-03T22:11:17.758Z,10.55
2023-02-03T22:13:44.253Z,11.05
2023-02-03T22:16:11.228Z,9.23
2023-02-03T22:18:37.715Z,6.72
2023-02-03T22:21:04.374Z,7.82
2023-02-03T22:23:30.830Z,8.90
2023-02-03T22:25:57.355Z,10.82
2023-02-03T22:28:24.672Z,9.43
2023-02-03T22:30:51.282Z,11.98
2023-02-03T22:33:18.268Z,9.32
2023-02-03T22:35:46.366Z,12.32
2023-02-03T22:38:12.833Z,8.88
2023-02-03T22:40:39.364Z,8.75
2023-02-03T22:43:05.882Z,8.23
2023-02-03T22:45:32.404Z,11.63
2023-02-03T22:47:58.912Z,11.95
2023-02-03T22:50:35.425Z,7.07
2023-02-03T22:53:02.974Z,6.93
2023-02-03T22:55:29.808Z,7.60
2023-02-03T22:57:56.719Z,8.82
2023-02-03T23:00:25.692Z,7.60
2023-02-03T23:02:52.261Z,11.32
2023-02-03T23:05:19.399Z,8.55
2023-02-03T23:07:46.356Z,8.80
2023-02-03T23:10:20.079Z,8.30
2023-02-03T23:12:46.709Z,8.85
2023-02-03T23:15:13.587Z,9.32
2023-02-03T23:17:40.737Z,9.38
2023-02-03T23:20:08.890Z,6.60
2023-02-03T23:22:35.378Z,8.10
2023-02-03T23:25:01.836Z,9.60
2023-02-03T23:27:28.394Z,10.27
2023-02-03T23:29:54.845Z,7.63
2023-02-03T23:32:21.382Z,8.30
2023-02-03T23:34:47.869Z,8.98
2023-02-03T23:37:14.305Z,8.02
2023-02-03T23:39:40.728Z,5.72
2023-02-03T23:42:07.256Z,7.68
2023-02-03T23:44:33.782Z,7.60
2023-02-03T23:47:00.335Z,10.25
2023-02-03T23:49:26.860Z,8.82
2023-02-03T23:51:53.343Z,8.30
2023-02-03T23:54:19.841Z,9.30
2023-02-03T23:56:46.310Z,7.20
2023-02-03T23:59:12.769Z,6.53
